KMMU/MMU METAR and TAF weather

Enter ICAO airport designator
Station Type Date Time Source
KMMU METAR 2019/09/21 04:35 UTC NOAA

KMMU 210435Z AUTO 00000KT 1/4SM FG VV002 09/09 A3020 RMK AO2


Station Type Date Time Source
KMMU Decoded METAR 2019/09/21 04:35 UTC NOAA

Morristown Municipal, NJ, United States (KMMU) 40-48N 074-25W
Sep 21, 2019 - 12:35 AM EDT / 2019.09.21 0435 UTC
Wind: Calm:0
Visibility: 1/4 mile(s):0
Sky conditions: obscured
Weather: fog
Temperature: 48 F (9 C)
Dew Point: 48 F (9 C)
Relative Humidity: 100%
Pressure (altimeter): 30.2 in. Hg (1022 hPa)
ob: KMMU 210435Z AUTO 00000KT 1/4SM FG VV002 09/09 A3020 RMK AO2
cycle: 4

Station Type Date Time Source
KMMU TAF UTC NOAA

Error!

Example: see airport list